Terminal Aerodrome Forecast
Issued by NWS Springfield, MO

Home | Current Version | Previous Version | Text Only | Print | Product List | Glossary On
Versions: 1 2 3 4 5 6 7 8 9 10 11 12 13 14 15
146
FTUS43 KSGF 072320
TAFSGF
TAF
KSGF 072320Z 0800/0824 29012KT P6SM OVC120
     FM080900 31013G20KT P6SM OVC050
     FM081300 32021G32KT P6SM OVC040
      TEMPO 0814/0818 -SHSN OVC035
     FM081800 32020G32KT P6SM OVC025=

USA.gov is the U.S. government's official web portal to all federal, state and local government web resources and services.